createdAt,value
2023-04-28T00:01:25.339Z,99643.91
2023-04-28T00:03:53.441Z,99644.34
2023-04-28T00:06:20.195Z,99630.53
2023-04-28T00:08:46.756Z,99634.34
2023-04-28T00:11:13.402Z,99636.16
2023-04-28T00:13:39.996Z,99636.81
2023-04-28T00:16:07.143Z,99627.25
2023-04-28T00:18:33.741Z,99625.91
2023-04-28T00:21:01.561Z,99622.44
2023-04-28T00:23:28.217Z,99623.00
2023-04-28T00:25:57.385Z,99624.34
2023-04-28T00:30:53.576Z,99621.19
2023-04-28T00:33:20.211Z,99611.41
2023-04-28T00:35:46.832Z,99607.47
2023-04-28T00:38:13.454Z,99607.91
2023-04-28T00:40:40.467Z,99607.69
2023-04-28T00:43:07.065Z,99604.22
2023-04-28T00:45:33.787Z,99603.22
2023-04-28T00:48:00.914Z,99589.94
2023-04-28T00:50:28.451Z,99586.34
2023-04-28T00:52:55.040Z,99584.31
2023-04-28T00:55:22.197Z,99573.97
2023-04-28T00:57:48.854Z,99564.66
2023-04-28T01:00:16.454Z,99566.44
2023-04-28T01:02:43.261Z,99563.31
2023-04-28T01:05:11.261Z,99557.13
2023-04-28T01:07:37.895Z,99557.91
2023-04-28T01:10:07.112Z,99554.31
2023-04-28T01:12:34.449Z,99552.63
2023-04-28T01:15:01.614Z,99548.94
2023-04-28T01:17:29.025Z,99554.31
2023-04-28T01:19:55.929Z,99561.28
2023-04-28T01:22:22.514Z,99557.47
2023-04-28T01:24:49.196Z,99548.47
2023-04-28T01:27:16.612Z,99559.25
2023-04-28T01:29:44.008Z,99548.94
2023-04-28T01:32:10.697Z,99545.31
2023-04-28T01:34:37.382Z,99542.84
2023-04-28T01:37:06.014Z,99541.63
2023-04-28T01:39:32.804Z,99528.34
2023-04-28T01:41:59.568Z,99528.13
2023-04-28T01:44:26.298Z,99525.97
2023-04-28T01:46:52.856Z,99525.53
2023-04-28T01:49:21.720Z,99526.41
2023-04-28T01:51:48.247Z,99525.63
2023-04-28T01:54:15.301Z,99521.69
2023-04-28T01:56:42.655Z,99513.50
2023-04-28T01:59:11.860Z,99507.06
2023-04-28T02:01:38.542Z,99508.28
2023-04-28T02:04:05.530Z,99506.94
2023-04-28T02:06:36.652Z,99514.16
2023-04-28T02:09:03.326Z,99514.72
2023-04-28T02:11:29.953Z,99505.94
2023-04-28T02:13:57.093Z,99515.50
2023-04-28T02:16:23.895Z,99507.97
2023-04-28T02:18:50.994Z,99506.16
2023-04-28T02:21:17.570Z,99501.44
2023-04-28T02:23:45.034Z,99502.22
2023-04-28T02:26:11.713Z,99500.34
2023-04-28T02:28:38.300Z,99500.56
2023-04-28T02:31:11.496Z,99493.59
2023-04-28T02:33:38.757Z,99495.41
2023-04-28T02:36:07.733Z,99494.84
2023-04-28T02:38:35.071Z,99495.41
2023-04-28T02:41:04.874Z,99484.03
2023-04-28T02:43:32.663Z,99488.88
2023-04-28T02:45:59.620Z,99485.72
2023-04-28T02:48:26.700Z,99481.56
2023-04-28T02:50:53.767Z,99477.88
2023-04-28T02:53:20.884Z,99477.31
2023-04-28T02:55:47.702Z,99467.53
2023-04-28T02:58:14.524Z,99470.56
2023-04-28T03:00:41.321Z,99467.50
2023-04-28T03:03:08.185Z,99468.94
2023-04-28T03:05:34.972Z,99470.63
2023-04-28T03:08:01.666Z,99468.91
2023-04-28T03:10:28.418Z,99464.84
2023-04-28T03:12:55.054Z,99462.25
2023-04-28T03:15:21.631Z,99460.56
2023-04-28T03:17:48.483Z,99453.66
2023-04-28T03:20:15.516Z,99450.16
2023-04-28T03:22:42.373Z,99447.88
2023-04-28T03:25:09.140Z,99429.63
2023-04-28T03:27:44.996Z,99429.63
2023-04-28T03:30:11.972Z,99424.44
2023-04-28T03:32:38.708Z,99431.28
2023-04-28T03:35:07.394Z,99426.66
2023-04-28T03:37:34.254Z,99424.78
2023-04-28T03:40:00.977Z,99420.84
2023-04-28T03:42:30.791Z,99420.75
2023-04-28T03:45:09.061Z,99419.41
2023-04-28T03:47:36.230Z,99411.44
2023-04-28T03:50:03.572Z,99420.38
2023-04-28T03:52:30.192Z,99415.75
2023-04-28T03:54:56.807Z,99420.69
2023-04-28T03:57:23.491Z,99421.25
2023-04-28T03:59:51.275Z,99426.97
2023-04-28T04:02:18.060Z,99422.34
2023-04-28T04:04:45.414Z,99425.72
2023-04-28T04:07:12.240Z,99422.66
2023-04-28T04:09:39.889Z,99413.63
2023-04-28T04:12:07.735Z,99412.38
2023-04-28T04:14:35.621Z,99417.78
2023-04-28T04:17:02.259Z,99410.03
2023-04-28T04:19:29.087Z,99402.28
2023-04-28T04:21:56.612Z,99396.19
2023-04-28T04:24:23.390Z,99392.47
2023-04-28T04:26:50.091Z,99388.53
2023-04-28T04:29:27.258Z,99373.69
2023-04-28T04:31:54.313Z,99378.16
2023-04-28T04:34:21.394Z,99382.44
2023-04-28T04:36:48.093Z,99375.47
2023-04-28T04:39:14.699Z,99384.19
2023-04-28T04:41:42.182Z,99377.34
2023-04-28T04:44:37.871Z,99373.03
2023-04-28T04:47:07.734Z,99379.59
2023-04-28T04:49:36.143Z,99368.06
2023-04-28T04:52:03.957Z,99369.19
2023-04-28T04:54:30.766Z,99367.72
2023-04-28T04:56:58.410Z,99367.00
2023-04-28T04:59:51.201Z,99371.03
2023-04-28T05:02:18.651Z,99370.03
2023-04-28T05:04:45.518Z,99359.19
2023-04-28T05:07:14.333Z,99363.94
2023-04-28T05:09:41.301Z,99362.72
2023-04-28T05:12:08.174Z,99352.88
2023-04-28T05:14:35.093Z,99355.50
2023-04-28T05:17:01.758Z,99342.81
2023-04-28T05:19:33.564Z,99345.16
2023-04-28T05:22:01.730Z,99337.16
2023-04-28T05:24:28.549Z,99344.22
2023-04-28T05:26:58.652Z,99339.06
2023-04-28T05:29:25.436Z,99339.88
2023-04-28T05:31:52.050Z,99330.53
2023-04-28T05:34:21.760Z,99333.66
2023-04-28T05:36:48.533Z,99326.41
2023-04-28T05:39:15.671Z,99328.53
2023-04-28T05:41:42.327Z,99327.78
2023-04-28T05:44:11.153Z,99326.53
2023-04-28T05:46:37.921Z,99319.78
2023-04-28T05:49:05.573Z,99321.06
2023-04-28T05:51:35.803Z,99322.38
2023-04-28T05:54:03.131Z,99321.59
2023-04-28T05:56:30.881Z,99327.06
2023-04-28T05:58:59.122Z,99322.13
2023-04-28T06:01:26.223Z,99324.72
2023-04-28T06:03:53.929Z,99325.75
2023-04-28T06:06:21.603Z,99316.66
2023-04-28T06:08:48.479Z,99314.56
2023-04-28T06:11:15.021Z,99320.81
2023-04-28T06:13:42.012Z,99318.22
2023-04-28T06:16:08.738Z,99320.81
2023-04-28T06:18:35.563Z,99326.75
2023-04-28T06:21:03.056Z,99320.47
2023-04-28T06:23:30.282Z,99326.88
2023-04-28T06:25:58.000Z,99326.47
2023-04-28T06:28:24.635Z,99319.81
2023-04-28T06:30:53.357Z,99318.38
2023-04-28T06:33:19.980Z,99316.53
2023-04-28T06:35:46.840Z,99317.03
2023-04-28T06:38:14.642Z,99314.91
2023-04-28T06:40:41.436Z,99310.13
2023-04-28T06:43:08.573Z,99312.44
2023-04-28T06:45:43.333Z,99310.00
2023-04-28T06:48:10.671Z,99308.06
2023-04-28T06:50:38.720Z,99307.25
2023-04-28T06:53:07.659Z,99311.06
2023-04-28T06:55:35.104Z,99300.56
2023-04-28T06:58:02.584Z,99297.06
2023-04-28T07:00:29.237Z,99299.03
2023-04-28T07:02:56.133Z,99304.47
2023-04-28T07:05:22.995Z,99302.66
2023-04-28T07:07:49.567Z,99290.63
2023-04-28T07:10:16.209Z,99293.75
2023-04-28T07:12:42.996Z,99292.34
2023-04-28T07:15:10.492Z,99283.94
2023-04-28T07:17:37.542Z,99283.59
2023-04-28T07:20:05.354Z,99287.56
2023-04-28T07:22:31.994Z,99286.66
2023-04-28T07:24:58.608Z,99279.16
2023-04-28T07:27:25.212Z,99279.50
2023-04-28T07:29:51.795Z,99281.31
2023-04-28T07:32:18.538Z,99285.56
2023-04-28T07:34:45.181Z,99274.72
2023-04-28T07:37:12.033Z,99274.28
2023-04-28T07:39:40.509Z,99273.50
2023-04-28T07:42:07.696Z,99270.09
2023-04-28T07:44:34.876Z,99265.63
2023-04-28T07:47:01.790Z,99267.13
2023-04-28T07:49:28.887Z,99263.47
2023-04-28T07:51:56.548Z,99254.94
2023-04-28T07:54:23.899Z,99255.72
2023-04-28T07:56:50.669Z,99253.47
2023-04-28T07:59:17.310Z,99244.06
2023-04-28T08:01:43.999Z,99250.09
2023-04-28T08:04:11.726Z,99248.22
2023-04-28T08:06:40.003Z,99250.75
2023-04-28T08:09:06.785Z,99246.25
2023-04-28T08:11:33.762Z,99247.59
2023-04-28T08:14:02.966Z,99241.56
2023-04-28T08:16:31.045Z,99239.72
2023-04-28T08:18:58.166Z,99254.41
2023-04-28T08:21:24.962Z,99245.47
2023-04-28T08:23:51.716Z,99244.09
2023-04-28T08:26:18.551Z,99238.13
2023-04-28T08:28:45.547Z,99245.84
2023-04-28T08:31:12.386Z,99252.22
2023-04-28T08:33:39.159Z,99253.50
2023-04-28T08:36:06.372Z,99250.59
2023-04-28T08:38:33.016Z,99239.47
2023-04-28T08:40:59.552Z,99242.59
2023-04-28T08:43:26.134Z,99237.63
2023-04-28T08:45:52.960Z,99234.06
2023-04-28T08:48:21.575Z,99227.13
2023-04-28T08:50:51.881Z,99228.75
2023-04-28T08:53:25.822Z,99223.84
2023-04-28T08:55:57.446Z,99223.09
2023-04-28T08:58:28.408Z,99219.91
2023-04-28T09:00:55.089Z,99210.88
2023-04-28T09:03:22.105Z,99209.88
2023-04-28T09:05:50.030Z,99207.75
2023-04-28T09:08:18.141Z,99210.09
2023-04-28T09:10:44.786Z,99207.63
2023-04-28T09:13:25.462Z,99211.31
2023-04-28T09:16:00.079Z,99211.31
2023-04-28T09:18:26.804Z,99209.78
2023-04-28T09:21:09.403Z,99209.00
2023-04-28T09:23:48.854Z,99202.97
2023-04-28T09:26:15.551Z,99201.88
2023-04-28T09:28:42.187Z,99207.00
2023-04-28T09:31:25.258Z,99209.31
2023-04-28T09:33:58.880Z,99199.09
2023-04-28T09:36:30.692Z,99204.97
2023-04-28T09:38:59.380Z,99203.44
2023-04-28T09:41:45.364Z,99194.59
2023-04-28T09:44:21.376Z,99199.81
2023-04-28T09:46:48.425Z,99206.28
2023-04-28T09:49:15.489Z,99198.94
2023-04-28T09:51:43.067Z,99203.25
2023-04-28T09:54:11.233Z,99197.19
2023-04-28T09:56:41.314Z,99198.09
2023-04-28T09:59:08.114Z,99196.50
2023-04-28T10:01:40.628Z,99201.91
2023-04-28T10:04:08.149Z,99200.53
2023-04-28T10:06:38.758Z,99200.69
2023-04-28T10:09:05.676Z,99196.75
2023-04-28T10:11:34.873Z,99185.97
2023-04-28T10:14:01.674Z,99186.31
2023-04-28T10:16:31.258Z,99183.25
2023-04-28T10:18:58.684Z,99187.16
2023-04-28T10:21:28.372Z,99196.47
2023-04-28T10:24:15.104Z,99191.97
2023-04-28T10:27:05.677Z,99193.06
2023-04-28T10:29:33.701Z,99187.44
2023-04-28T10:32:30.853Z,99195.59
2023-04-28T10:35:32.717Z,99205.59
2023-04-28T10:38:05.697Z,99192.56
2023-04-28T10:41:01.075Z,99200.72
2023-04-28T10:43:31.221Z,99200.53
2023-04-28T10:46:00.669Z,99206.78
2023-04-28T10:48:30.936Z,99210.47
2023-04-28T10:51:18.477Z,99216.75
2023-04-28T10:53:45.470Z,99208.13
2023-04-28T10:56:24.984Z,99219.38
2023-04-28T10:58:52.594Z,99222.13
2023-04-28T11:01:22.335Z,99221.63
2023-04-28T11:03:51.107Z,99224.00
2023-04-28T11:06:33.137Z,99231.00
2023-04-28T11:09:15.102Z,99233.94
2023-04-28T11:12:00.299Z,99228.78
2023-04-28T11:14:33.232Z,99238.91
2023-04-28T11:17:02.778Z,99225.63
2023-04-28T11:19:46.537Z,99233.19
2023-04-28T11:22:20.316Z,99237.00
2023-04-28T11:25:03.749Z,99234.44
2023-04-28T11:27:33.225Z,99235.66
2023-04-28T11:30:01.544Z,99240.59
2023-04-28T11:32:28.549Z,99234.09
2023-04-28T11:34:55.530Z,99237.03
2023-04-28T11:37:22.961Z,99239.72
2023-04-28T11:39:50.162Z,99235.94
2023-04-28T11:42:17.386Z,99233.13
2023-04-28T11:44:52.731Z,99235.03
2023-04-28T11:47:30.291Z,99230.78
2023-04-28T11:49:58.686Z,99229.94
2023-04-28T11:52:27.274Z,99226.41
2023-04-28T11:54:56.063Z,99226.97
2023-04-28T11:57:23.811Z,99231.16
2023-04-28T11:59:51.198Z,99225.63
2023-04-28T12:02:28.990Z,99222.16
2023-04-28T12:04:56.301Z,99214.44
2023-04-28T12:07:23.669Z,99215.34
2023-04-28T12:10:16.927Z,99213.47
2023-04-28T12:12:51.911Z,99206.19
2023-04-28T12:15:21.924Z,99215.88
2023-04-28T12:17:50.697Z,99211.38
2023-04-28T12:20:37.778Z,99208.16
2023-04-28T12:23:05.453Z,99216.00
2023-04-28T12:25:34.012Z,99215.06
2023-04-28T12:28:08.320Z,99211.75
2023-04-28T12:30:41.957Z,99202.44
2023-04-28T12:33:25.962Z,99199.53
2023-04-28T12:35:56.618Z,99200.00
2023-04-28T12:38:24.621Z,99202.75
2023-04-28T12:40:51.333Z,99192.06
2023-04-28T12:43:17.992Z,99195.06
2023-04-28T12:45:44.933Z,99195.81
2023-04-28T12:48:11.597Z,99195.22
2023-04-28T12:50:38.272Z,99194.44
2023-04-28T12:53:05.146Z,99194.63
2023-04-28T12:55:31.909Z,99182.66
2023-04-28T12:57:59.407Z,99191.94
2023-04-28T13:00:26.425Z,99189.13
2023-04-28T13:02:53.423Z,99189.06
2023-04-28T13:05:20.161Z,99184.56
2023-04-28T13:07:47.417Z,99180.22
2023-04-28T13:10:14.035Z,99177.88
2023-04-28T13:12:41.363Z,99176.13
2023-04-28T13:15:08.792Z,99168.25
2023-04-28T13:17:35.640Z,99172.53
2023-04-28T13:20:05.219Z,99172.66
2023-04-28T13:22:31.971Z,99175.97
2023-04-28T13:24:59.032Z,99167.66
2023-04-28T13:27:25.953Z,99165.59
2023-04-28T13:29:52.732Z,99158.81
2023-04-28T13:32:19.393Z,99159.59
2023-04-28T13:34:46.703Z,99149.31
2023-04-28T13:37:13.770Z,99150.66
2023-04-28T13:39:40.507Z,99149.88
2023-04-28T13:42:07.197Z,99143.34
2023-04-28T13:44:33.871Z,99140.72
2023-04-28T13:47:00.883Z,99134.72
2023-04-28T13:49:28.037Z,99125.97
2023-04-28T13:51:54.760Z,99115.41
2023-04-28T13:54:21.760Z,99124.72
2023-04-28T13:56:48.614Z,99117.75
2023-04-28T13:59:15.270Z,99120.28
2023-04-28T14:01:42.055Z,99122.72
2023-04-28T14:04:09.028Z,99113.19
2023-04-28T14:06:35.941Z,99117.66
2023-04-28T14:09:03.490Z,99113.56
2023-04-28T14:11:30.124Z,99111.44
2023-04-28T14:13:57.423Z,99107.34
2023-04-28T14:16:24.211Z,99104.53
2023-04-28T14:18:51.850Z,99101.44
2023-04-28T14:21:18.552Z,99098.03
2023-04-28T14:23:45.254Z,99097.06
2023-04-28T14:26:12.107Z,99090.75
2023-04-28T14:28:38.799Z,99083.19
2023-04-28T14:31:09.290Z,99077.19
2023-04-28T14:33:36.098Z,99079.22
2023-04-28T14:36:02.908Z,99078.34
2023-04-28T14:38:30.683Z,99077.75
2023-04-28T14:40:58.215Z,99075.44
2023-04-28T14:43:25.105Z,99078.34
2023-04-28T14:45:52.695Z,99081.25
2023-04-28T14:48:20.213Z,99071.06
2023-04-28T14:50:47.634Z,99074.34
2023-04-28T14:53:14.394Z,99072.22
2023-04-28T14:55:41.025Z,99071.44
2023-04-28T14:58:08.574Z,99066.97
2023-04-28T15:00:36.087Z,99059.59
2023-04-28T15:03:04.027Z,99057.50
2023-04-28T15:05:30.936Z,99058.94
2023-04-28T15:07:57.539Z,99059.13
2023-04-28T15:10:24.395Z,99051.94
2023-04-28T15:12:51.185Z,99050.28
2023-04-28T15:15:18.104Z,99046.00
2023-04-28T15:17:45.476Z,99049.56
2023-04-28T15:20:12.200Z,99050.47
2023-04-28T15:22:38.955Z,99044.34
2023-04-28T15:25:06.047Z,99046.53
2023-04-28T15:27:32.738Z,99042.06
2023-04-28T15:29:59.423Z,99043.44
2023-04-28T15:32:27.241Z,99045.28
2023-04-28T15:34:55.362Z,99035.88
2023-04-28T15:37:49.631Z,99044.25
2023-04-28T15:40:17.697Z,99027.56
2023-04-28T15:42:52.894Z,99034.25
2023-04-28T15:45:21.336Z,99026.69
2023-04-28T15:47:50.602Z,99029.00
2023-04-28T15:50:19.711Z,99027.47
2023-04-28T15:52:49.546Z,99035.44
2023-04-28T15:55:18.085Z,99023.22
2023-04-28T15:57:46.931Z,99021.19
2023-04-28T16:00:17.002Z,99017.31
2023-04-28T16:02:44.707Z,99020.81
2023-04-28T16:05:12.500Z,99022.72
2023-04-28T16:07:40.948Z,99018.56
2023-04-28T16:10:13.578Z,99019.53
2023-04-28T16:12:41.853Z,99007.34
2023-04-28T16:15:10.947Z,99008.59
2023-04-28T16:17:38.657Z,99019.66
2023-04-28T16:20:06.979Z,99019.66
2023-04-28T16:22:34.041Z,99009.47
2023-04-28T16:25:00.868Z,99009.16
2023-04-28T16:27:27.674Z,99011.78
2023-04-28T16:29:54.469Z,99004.13
2023-04-28T16:32:21.492Z,99004.41
2023-04-28T16:34:49.012Z,99002.88
2023-04-28T16:37:16.008Z,99004.72
2023-04-28T16:39:42.605Z,98998.81
2023-04-28T16:42:09.265Z,98995.22
2023-04-28T16:44:35.985Z,98994.81
2023-04-28T16:47:02.766Z,98989.66
2023-04-28T16:49:29.457Z,98986.47
2023-04-28T16:52:04.488Z,98983.66
2023-04-28T16:54:32.074Z,98987.25
2023-04-28T16:56:59.950Z,98979.50
2023-04-28T16:59:29.616Z,98974.84
2023-04-28T17:01:57.264Z,98972.03
2023-04-28T17:04:24.753Z,98969.69
2023-04-28T17:06:53.023Z,98970.19
2023-04-28T17:09:21.152Z,98975.41
2023-04-28T17:11:49.711Z,98973.88
2023-04-28T17:14:17.058Z,98969.41
2023-04-28T17:16:44.318Z,98973.88
2023-04-28T17:19:11.451Z,98965.25
2023-04-28T17:21:38.449Z,98965.81
2023-04-28T17:24:05.947Z,98967.09
2023-04-28T17:26:32.881Z,98962.13
2023-04-28T17:28:59.939Z,98961.75
2023-04-28T17:31:28.191Z,98961.66
2023-04-28T17:33:57.551Z,98966.69
2023-04-28T17:36:25.929Z,98961.94
2023-04-28T17:38:53.378Z,98959.16
2023-04-28T17:41:20.162Z,98958.06
2023-04-28T17:43:46.964Z,98958.84
2023-04-28T17:46:15.054Z,98955.16
2023-04-28T17:48:44.756Z,98958.28
2023-04-28T17:51:11.398Z,98953.03
2023-04-28T17:53:39.171Z,98943.16
2023-04-28T17:56:06.125Z,98953.44
2023-04-28T17:58:33.687Z,98952.06
2023-04-28T18:01:07.734Z,98959.53
2023-04-28T18:03:38.933Z,98959.91
2023-04-28T18:06:07.864Z,98952.06
2023-04-28T18:08:36.489Z,98962.34
2023-04-28T18:11:03.926Z,98962.44
2023-04-28T18:13:30.953Z,98963.22
2023-04-28T18:15:57.622Z,98965.53
2023-04-28T18:20:57.324Z,98966.69
2023-04-28T18:23:24.165Z,98968.25
2023-04-28T18:25:50.850Z,98957.09
2023-04-28T18:28:17.548Z,98964.56
2023-04-28T18:30:44.123Z,98962.72
2023-04-28T18:33:10.942Z,98957.41
2023-04-28T18:35:37.660Z,98961.16
2023-04-28T18:38:05.134Z,98967.09
2023-04-28T18:40:34.160Z,98963.88
2023-04-28T18:43:04.095Z,98960.78
2023-04-28T18:45:32.982Z,98956.81
2023-04-28T18:48:04.164Z,98959.31
2023-04-28T18:50:31.673Z,98953.81
2023-04-28T18:53:00.755Z,98954.69
2023-04-28T18:55:27.449Z,98959.72
2023-04-28T18:57:54.162Z,98961.84
2023-04-28T19:00:21.528Z,98974.13
2023-04-28T19:02:48.801Z,98975.78
2023-04-28T19:05:15.577Z,98977.53
2023-04-28T19:07:42.789Z,98973.38
2023-04-28T19:10:10.043Z,98979.59
2023-04-28T19:12:36.978Z,98973.38
2023-04-28T19:15:03.818Z,98979.00
2023-04-28T19:17:30.545Z,98972.00
2023-04-28T19:19:57.830Z,98976.47
2023-04-28T19:22:40.233Z,98979.56
2023-04-28T19:25:07.937Z,98985.00
2023-04-28T19:27:36.776Z,98976.75
2023-04-28T19:30:07.160Z,98978.97
2023-04-28T19:32:34.008Z,98966.97
2023-04-28T19:35:03.088Z,98972.38
2023-04-28T19:37:32.039Z,98961.34
2023-04-28T19:39:58.620Z,98967.44
2023-04-28T19:42:25.928Z,98959.41
2023-04-28T19:44:57.953Z,98958.13
2023-04-28T19:47:35.586Z,98949.91
2023-04-28T19:50:02.571Z,98957.75
2023-04-28T19:52:29.173Z,98953.31
2023-04-28T19:54:55.930Z,98955.06
2023-04-28T19:57:23.499Z,98946.03
2023-04-28T19:59:50.209Z,98950.00
2023-04-28T20:02:17.214Z,98952.63
2023-04-28T20:04:45.017Z,98947.19
2023-04-28T20:07:11.968Z,98954.16
2023-04-28T20:09:39.264Z,98953.41
2023-04-28T20:12:08.687Z,98940.50
2023-04-28T20:14:37.155Z,98939.81
2023-04-28T20:17:04.975Z,98932.38
2023-04-28T20:19:31.835Z,98934.78
2023-04-28T20:21:58.540Z,98940.59
2023-04-28T20:24:25.157Z,98941.38
2023-04-28T20:26:54.922Z,98942.25
2023-04-28T20:29:21.735Z,98929.09
2023-04-28T20:31:48.751Z,98936.63
2023-04-28T20:34:15.485Z,98939.06
2023-04-28T20:36:43.083Z,98924.63
2023-04-28T20:39:11.746Z,98908.53
2023-04-28T20:41:40.910Z,98918.22
2023-04-28T20:44:07.986Z,98908.13
2023-04-28T20:46:35.490Z,98903.84
2023-04-28T20:49:02.770Z,98896.84
2023-04-28T20:51:30.204Z,98894.97
2023-04-28T20:53:57.767Z,98895.34
2023-04-28T20:56:24.630Z,98905.38
2023-04-28T20:58:51.394Z,98905.59
2023-04-28T21:01:18.131Z,98906.03
2023-04-28T21:03:44.978Z,98908.28
2023-04-28T21:06:11.774Z,98906.53
2023-04-28T21:08:38.644Z,98914.16
2023-04-28T21:11:11.522Z,98916.97
2023-04-28T21:13:38.321Z,98910.69
2023-04-28T21:16:05.531Z,98905.94
2023-04-28T21:18:32.159Z,98914.56
2023-04-28T21:20:58.846Z,98908.28
2023-04-28T21:23:25.461Z,98902.25
2023-04-28T21:25:52.369Z,98910.09
2023-04-28T21:28:18.972Z,98910.69
2023-04-28T21:30:45.584Z,98908.00
2023-04-28T21:33:12.647Z,98908.56
2023-04-28T21:35:39.311Z,98904.22
2023-04-28T21:38:06.264Z,98906.81
2023-04-28T21:40:33.161Z,98907.03
2023-04-28T21:42:59.751Z,98903.63
2023-04-28T21:45:26.460Z,98906.75
2023-04-28T21:47:53.147Z,98908.50
2023-04-28T21:50:19.835Z,98897.34
2023-04-28T21:52:46.437Z,98895.31
2023-04-28T21:55:13.174Z,98897.91
2023-04-28T21:57:39.809Z,98903.56
2023-04-28T22:00:10.619Z,98901.94
2023-04-28T22:02:40.708Z,98903.78
2023-04-28T22:05:08.392Z,98896.00
2023-04-28T22:07:35.923Z,98892.41
2023-04-28T22:10:02.496Z,98892.97
2023-04-28T22:12:29.165Z,98890.28
2023-04-28T22:14:56.020Z,98892.31
2023-04-28T22:17:22.847Z,98889.69
2023-04-28T22:19:49.988Z,98876.72
2023-04-28T22:22:16.771Z,98881.16
2023-04-28T22:24:43.555Z,98873.25
2023-04-28T22:27:10.479Z,98868.00
2023-04-28T22:29:37.056Z,98864.34
2023-04-28T22:32:04.561Z,98859.19
2023-04-28T22:34:31.208Z,98859.47
2023-04-28T22:36:58.010Z,98865.78
2023-04-28T22:39:25.255Z,98878.06
2023-04-28T22:41:52.027Z,98884.84
2023-04-28T22:44:19.040Z,98881.09
2023-04-28T22:46:46.259Z,98882.56
2023-04-28T22:49:12.957Z,98882.69
2023-04-28T22:51:39.669Z,98881.41
2023-04-28T22:54:06.257Z,98882.47
2023-04-28T22:56:32.844Z,98881.84
2023-04-28T22:58:59.647Z,98875.53
2023-04-28T23:01:26.407Z,98880.63
2023-04-28T23:03:53.236Z,98873.94
2023-04-28T23:06:19.980Z,98873.25
2023-04-28T23:08:46.720Z,98868.50
2023-04-28T23:11:13.367Z,98862.59
2023-04-28T23:13:39.979Z,98866.06
2023-04-28T23:16:07.042Z,98852.03
2023-04-28T23:18:33.690Z,98852.09
2023-04-28T23:21:00.362Z,98848.31
2023-04-28T23:23:27.148Z,98838.34
2023-04-28T23:25:55.516Z,98842.50
2023-04-28T23:28:22.227Z,98834.47
2023-04-28T23:30:48.956Z,98836.50
2023-04-28T23:33:15.564Z,98833.69
2023-04-28T23:35:42.204Z,98824.31
2023-04-28T23:38:08.935Z,98817.81
2023-04-28T23:40:35.564Z,98818.28
2023-04-28T23:43:02.236Z,98817.88
2023-04-28T23:45:28.910Z,98824.44
2023-04-28T23:47:55.663Z,98822.09
2023-04-28T23:50:22.367Z,98818.44
2023-04-28T23:52:49.005Z,98822.88
2023-04-28T23:55:15.726Z,98824.06
2023-04-28T23:57:42.401Z,98826.31
